Time;durP1;ratioP1;P1;durP2;ratioP2;P2;SDS_P1;SDS_P2;PMS_P1;PMS_P2;Temp;Humidity;BMP_temperature;BMP_pressure;BME280_temperature;BME280_humidity;BME280_pressure;Samples;Min_cycle;Max_cycle;Signal;HPM_P1;HPM_P2
2023/06/24 00:02:04;;;;;;;3.45;2.95;;;;;;;25.16;49.42;101113.78;21082871;28;20036;-59
2023/06/24 00:12:06;;;;;;;3.35;2.60;;;;;;;25.16;49.36;101110.16;21093798;28;20040;-57
2023/06/24 00:22:07;;;;;;;3.97;2.90;;;;;;;25.14;49.52;101113.22;21092256;28;20048;-58
2023/06/24 00:32:09;;;;;;;3.70;2.83;;;;;;;25.18;49.52;101131.09;21091044;28;20040;-58
2023/06/24 00:42:10;;;;;;;4.68;3.08;;;;;;;25.18;49.60;101128.28;21090245;28;20537;-59
2023/06/24 00:52:16;;;;;;;3.63;2.92;;;;;;;24.98;49.63;101095.84;21089966;28;20062;-57
2023/06/24 01:02:17;;;;;;;3.15;2.58;;;;;;;25.16;49.56;101122.19;21089166;28;20048;-59
2023/06/24 01:12:18;;;;;;;4.05;2.92;;;;;;;25.11;49.74;101105.47;21087530;28;20032;-59
2023/06/24 01:22:41;;;;;;;4.07;2.80;;;;;;;25.14;49.61;101140.41;21087786;28;20484;-57
2023/06/24 01:32:55;;;;;;;4.18;3.20;;;;;;;25.00;49.50;101124.34;21086731;28;20051;-57
2023/06/24 01:43:03;;;;;;;3.58;2.95;;;;;;;25.18;49.66;101153.50;21085653;28;20478;-59
2023/06/24 01:53:07;;;;;;;3.17;2.88;;;;;;;25.18;49.51;101147.88;21085383;28;20040;-58
2023/06/24 02:03:09;;;;;;;3.42;2.53;;;;;;;25.15;49.61;101144.88;21084329;28;20101;-58
2023/06/24 02:13:12;;;;;;;3.15;2.72;;;;;;;25.11;49.34;101155.88;21084155;28;20028;-58
2023/06/24 02:23:14;;;;;;;2.97;2.67;;;;;;;25.21;49.35;101158.50;21082100;28;20491;-57
2023/06/24 02:33:15;;;;;;;3.00;2.60;;;;;;;25.07;48.93;101108.03;21082116;28;20023;-58
2023/06/24 02:43:17;;;;;;;3.60;2.70;;;;;;;25.20;48.94;101131.63;21081434;28;20059;-59
2023/06/24 02:53:19;;;;;;;2.67;2.45;;;;;;;25.17;49.09;101129.44;21081538;28;20040;-59
2023/06/24 03:03:21;;;;;;;3.97;2.50;;;;;;;25.18;49.03;101128.28;21078499;28;20044;-59
2023/06/24 03:13:23;;;;;;;3.20;2.58;;;;;;;25.22;48.89;101132.16;21078702;28;20036;-57
2023/06/24 03:23:24;;;;;;;3.08;2.33;;;;;;;25.18;49.09;101145.09;21078221;28;20046;-56
2023/06/24 03:33:27;;;;;;;2.80;2.40;;;;;;;25.21;48.68;101146.47;21076970;28;20043;-58
2023/06/24 03:43:28;;;;;;;3.05;2.70;;;;;;;25.19;48.77;101135.53;21076983;28;20052;-57
2023/06/24 03:53:29;;;;;;;3.20;2.25;;;;;;;25.16;48.83;101133.38;21076208;28;20040;-56
2023/06/24 04:03:31;;;;;;;3.05;2.40;;;;;;;25.15;48.86;101120.50;21075946;28;20052;-56
2023/06/24 04:13:33;;;;;;;3.25;2.40;;;;;;;25.17;48.54;101123.84;21077574;28;20032;-58
2023/06/24 04:23:34;;;;;;;3.20;2.20;;;;;;;25.05;48.58;101099.06;21074259;28;20044;-57
2023/06/24 04:33:36;;;;;;;2.38;2.15;;;;;;;25.17;48.68;101115.44;21075328;28;20058;-58
2023/06/24 04:43:43;;;;;;;2.33;2.13;;;;;;;25.17;48.55;101111.81;21075204;28;20534;-58
2023/06/24 04:53:45;;;;;;;2.42;1.90;;;;;;;25.17;48.72;101112.63;21088855;28;20380;-59
2023/06/24 05:03:47;;;;;;;2.63;2.13;;;;;;;25.20;48.53;101123.22;21089658;28;20044;-58
2023/06/24 05:13:48;;;;;;;2.83;2.00;;;;;;;25.20;48.48;101128.84;21089206;28;20040;-57
2023/06/24 05:23:50;;;;;;;2.10;1.90;;;;;;;25.20;48.26;101128.84;21087813;28;20032;-59
2023/06/24 05:33:51;;;;;;;2.22;1.90;;;;;;;25.21;48.48;101124.88;21087384;28;20432;-60
2023/06/24 05:44:09;;;;;;;3.00;2.30;;;;;;;25.14;48.52;101102.03;21085857;28;20387;-59
2023/06/24 05:54:11;;;;;;;2.55;2.15;;;;;;;25.22;48.44;101098.53;21085366;28;20513;-58
2023/06/24 06:04:12;;;;;;;2.58;2.20;;;;;;;25.20;48.31;101089.63;21083366;28;20125;-58
2023/06/24 06:14:14;;;;;;;2.03;1.80;;;;;;;25.22;48.82;101076.13;21083815;28;20044;-58
2023/06/24 06:24:15;;;;;;;2.65;1.95;;;;;;;25.23;48.21;101066.59;21082768;28;20544;-57
2023/06/24 06:34:16;;;;;;;2.53;1.90;;;;;;;25.21;48.37;101046.47;21081890;28;20032;-57
2023/06/24 06:44:18;;;;;;;2.42;1.95;;;;;;;25.22;48.29;101036.91;21081083;28;20023;-56
2023/06/24 06:54:19;;;;;;;3.03;2.17;;;;;;;25.21;48.21;101024.06;21080681;28;20054;-58
2023/06/24 07:04:27;;;;;;;2.03;1.80;;;;;;;25.23;48.39;101027.38;21078954;28;20048;-57
2023/06/24 07:14:28;;;;;;;;;;;;;;;25.22;48.09;101014.53;21079367;28;20101;-58
2023/06/24 07:24:29;;;;;;;2.55;1.90;;;;;;;25.27;47.96;101010.78;21078379;28;19916;-58
2023/06/24 07:34:33;;;;;;;2.28;1.77;;;;;;;25.11;48.08;100973.84;21077041;28;20039;-58
2023/06/24 07:44:36;;;;;;;2.08;1.88;;;;;;;25.21;48.04;100990.47;21076874;28;20508;-59
2023/06/24 07:54:41;;;;;;;1.85;1.40;;;;;;;25.16;48.29;100968.16;21076856;28;20501;-57
2023/06/24 08:04:42;;;;;;;3.40;1.65;;;;;;;25.23;48.22;100976.13;21075796;28;20056;-57
2023/06/24 08:14:46;;;;;;;1.92;1.73;;;;;;;25.20;48.09;100963.59;21075924;28;20039;-58
2023/06/24 08:24:48;;;;;;;2.33;1.70;;;;;;;25.17;48.25;100972.63;21084773;28;20058;-58
2023/06/24 08:34:50;;;;;;;1.83;1.67;;;;;;;25.24;48.29;100972.19;21091645;28;20040;-58
2023/06/24 08:44:52;;;;;;;2.03;1.60;;;;;;;25.24;48.06;100978.63;21090856;28;20073;-59
2023/06/24 08:54:58;;;;;;;3.65;2.08;;;;;;;25.17;48.21;100971.78;21090489;28;20047;-58
2023/06/24 09:04:59;;;;;;;1.70;1.60;;;;;;;25.25;48.01;100996.28;21089986;28;20044;-58
2023/06/24 09:15:02;;;;;;;2.22;1.85;;;;;;;25.25;48.26;101001.88;21088252;28;20032;-57
2023/06/24 09:25:06;;;;;;;1.83;1.50;;;;;;;25.25;47.93;101002.72;21087394;28;20028;-57
2023/06/24 09:35:10;;;;;;;1.80;1.42;;;;;;;25.25;48.10;100999.09;21085389;28;20032;-57
2023/06/24 09:45:12;;;;;;;2.63;1.70;;;;;;;25.22;48.17;100997.72;21085308;28;20081;-58
2023/06/24 09:55:14;;;;;;;1.83;1.35;;;;;;;25.25;47.96;101002.72;21085616;28;20039;-58
2023/06/24 10:05:16;;;;;;;3.28;1.98;;;;;;;25.27;48.17;101008.00;21083694;28;20560;-58
2023/06/24 10:15:17;;;;;;;2.42;1.80;;;;;;;25.23;48.15;100999.38;21083150;28;20036;-57
2023/06/24 10:25:19;;;;;;;2.78;1.60;;;;;;;25.25;48.29;101008.31;21082430;28;20044;-58
2023/06/24 10:35:31;;;;;;;1.70;1.60;;;;;;;25.25;48.20;101008.31;21081610;28;20035;-56
2023/06/24 10:45:35;;;;;;;1.95;1.75;;;;;;;25.25;48.30;101008.31;21080639;28;20036;-58
2023/06/24 10:55:37;;;;;;;1.60;1.50;;;;;;;25.25;47.97;101005.50;21080521;28;20036;-57
2023/06/24 11:05:45;;;;;;;1.88;1.52;;;;;;;25.13;48.20;100993.13;21079249;28;20048;-57
2023/06/24 11:15:47;;;;;;;2.35;1.60;;;;;;;25.25;48.20;101008.31;21078817;28;20036;-57
2023/06/24 11:25:53;;;;;;;2.78;1.92;;;;;;;25.24;48.06;101003.81;21077838;28;20040;-57
2023/06/24 11:35:57;;;;;;;2.25;1.52;;;;;;;25.25;48.03;101002.72;21077375;28;20097;-58
2023/06/24 11:45:58;;;;;;;2.95;1.85;;;;;;;25.25;47.84;100999.91;21077962;28;20044;-56
2023/06/24 11:56:00;;;;;;;1.70;1.42;;;;;;;25.27;47.82;101027.59;21075720;28;20101;-56
2023/06/24 12:06:01;;;;;;;1.40;1.30;;;;;;;25.19;48.04;101020.72;21075543;28;20048;-57
2023/06/24 12:16:02;;;;;;;3.13;1.58;;;;;;;25.23;47.65;101009.75;21075446;28;20062;-58
2023/06/24 12:26:04;;;;;;;2.08;1.60;;;;;;;25.24;47.70;101009.41;21074711;28;20116;-57
2023/06/24 12:36:05;;;;;;;1.52;1.42;;;;;;;25.27;47.94;101030.41;21074463;28;20048;-58
2023/06/24 12:46:09;;;;;;;1.90;1.70;;;;;;;25.27;47.88;101022.00;21074178;28;20476;-59
2023/06/24 12:56:13;;;;;;;1.65;1.50;;;;;;;25.32;47.79;101033.94;21073812;28;20101;-59
2023/06/24 13:06:18;;;;;;;2.55;1.73;;;;;;;25.32;47.72;101030.31;21074762;28;20048;-58
2023/06/24 13:16:19;;;;;;;2.22;1.48;;;;;;;25.32;47.61;101036.72;21088311;28;20467;-58
2023/06/24 13:26:24;;;;;;;1.63;1.50;;;;;;;25.11;47.80;101007.47;21087325;28;20036;-58
2023/06/24 13:36:36;;;;;;;2.38;1.63;;;;;;;25.30;47.66;101032.59;21086638;28;20117;-59
2023/06/24 13:46:38;;;;;;;1.48;1.38;;;;;;;25.34;47.68;101028.88;21086110;28;20048;-59
2023/06/24 13:56:42;;;;;;;1.60;1.45;;;;;;;25.35;47.61;101033.31;21084616;28;20040;-58
2023/06/24 14:06:45;;;;;;;2.13;1.50;;;;;;;25.35;47.91;101024.09;21084436;28;20052;-58
2023/06/24 14:16:47;;;;;;;1.80;1.70;;;;;;;25.37;47.83;101020.97;21082892;28;20086;-59
2023/06/24 14:26:49;;;;;;;1.50;1.40;;;;;;;25.37;47.98;101020.97;21082063;28;20048;-58
2023/06/24 14:36:50;;;;;;;1.88;1.50;;;;;;;25.39;47.90;101001.91;21081554;28;20044;-58
2023/06/24 14:46:51;;;;;;;1.90;1.60;;;;;;;25.35;47.93;100988.50;21081009;28;20097;-57
2023/06/24 14:56:56;;;;;;;1.73;1.50;;;;;;;25.32;47.76;100980.72;21079964;28;20040;-58
2023/06/24 15:06:57;;;;;;;1.65;1.50;;;;;;;25.34;47.77;100986.84;21078717;28;20117;-57
2023/06/24 15:16:58;;;;;;;1.70;1.40;;;;;;;25.43;47.97;101008.50;21077380;28;20567;-58
2023/06/24 15:27:01;;;;;;;2.08;1.80;;;;;;;25.44;47.62;101004.59;21075275;28;20143;-57
2023/06/24 15:37:03;;;;;;;1.63;1.33;;;;;;;25.45;48.13;100978.22;21074562;28;20036;-58
2023/06/24 15:47:05;;;;;;;1.60;1.50;;;;;;;25.45;47.78;100983.84;21073499;28;20047;-58
2023/06/24 15:57:06;;;;;;;1.88;1.70;;;;;;;25.47;47.96;100987.16;21075868;28;20379;-59
2023/06/24 16:07:08;;;;;;;2.05;1.70;;;;;;;25.49;48.03;100966.09;21075989;28;20043;-58
2023/06/24 16:17:15;;;;;;;1.83;1.70;;;;;;;25.50;48.04;100952.91;21075332;28;20552;-59
2023/06/24 16:27:16;;;;;;;;;;;;;;;25.51;47.87;100966.59;21075782;28;20040;-58
2023/06/24 16:37:17;;;;;;;2.10;1.70;;;;;;;25.51;48.11;100957.38;21075642;28;19918;-59
2023/06/24 16:47:19;;;;;;;2.33;2.10;;;;;;;25.54;48.13;100931.53;21086229;28;20121;-59
2023/06/24 16:57:20;;;;;;;2.28;1.98;;;;;;;25.51;48.16;100927.38;21089695;28;20028;-58
2023/06/24 17:07:24;;;;;;;2.35;1.90;;;;;;;25.54;48.16;100925.94;21088887;28;20052;-59
2023/06/24 17:17:26;;;;;;;2.60;2.38;;;;;;;25.55;48.51;100906.00;21088095;28;20059;-59
2023/06/24 17:27:27;;;;;;;2.92;2.72;;;;;;;25.57;48.19;100928.13;21087813;28;20051;-59
2023/06/24 17:37:28;;;;;;;2.92;2.63;;;;;;;25.57;48.38;100933.72;21087799;28;20540;-59
2023/06/24 17:47:30;;;;;;;3.03;2.75;;;;;;;25.58;48.32;100921.38;21086318;28;20097;-57
2023/06/24 17:57:31;;;;;;;2.78;2.58;;;;;;;25.50;47.96;100896.88;21084465;28;20494;-58
2023/06/24 18:07:32;;;;;;;2.55;2.35;;;;;;;25.49;48.20;100882.03;21085153;28;20450;-57
2023/06/24 18:17:34;;;;;;;2.42;2.22;;;;;;;25.61;48.11;100881.50;21083840;28;20460;-60
2023/06/24 18:27:35;;;;;;;2.72;2.53;;;;;;;25.63;47.82;100862.41;21082645;28;20368;-57
2023/06/24 18:37:37;;;;;;;2.58;2.20;;;;;;;25.63;47.89;100851.19;21081839;28;20020;-59
2023/06/24 18:47:38;;;;;;;3.00;2.80;;;;;;;25.65;47.83;100837.69;21080873;28;20056;-58
2023/06/24 18:57:39;;;;;;;4.38;2.45;;;;;;;25.67;47.94;100845.78;21080337;28;20032;-57
2023/06/24 19:07:41;;;;;;;2.38;2.17;;;;;;;25.68;48.05;100845.47;21078728;28;20048;-58
2023/06/24 19:17:45;;;;;;;2.10;1.90;;;;;;;25.70;48.00;100845.97;21078803;28;20048;-57
2023/06/24 19:27:46;;;;;;;2.20;2.00;;;;;;;25.68;47.71;100825.03;21077698;28;20093;-59
2023/06/24 19:37:48;;;;;;;2.42;2.22;;;;;;;25.72;48.11;100835.28;21077448;28;20036;-58
2023/06/24 19:47:49;;;;;;;2.25;2.05;;;;;;;25.73;47.93;100822.91;21076736;28;20047;-57
2023/06/24 19:57:56;;;;;;;2.40;2.20;;;;;;;25.66;47.94;100794.53;21076480;28;20024;-57
2023/06/24 20:08:00;;;;;;;2.33;2.13;;;;;;;25.76;47.91;100797.09;21075511;28;20097;-58
2023/06/24 20:18:02;;;;;;;2.63;2.42;;;;;;;25.78;47.91;100774.34;21080136;28;20048;-58
2023/06/24 20:28:04;;;;;;;2.38;2.17;;;;;;;25.76;48.04;100765.44;21092358;28;20032;-59
2023/06/24 20:38:08;;;;;;;2.20;2.00;;;;;;;25.80;48.06;100772.91;21091456;28;20040;-57
2023/06/24 20:48:10;;;;;;;2.08;1.92;;;;;;;25.81;48.20;100784.94;21090171;28;20048;-58
2023/06/24 20:58:11;;;;;;;2.50;2.20;;;;;;;25.67;48.31;100773.75;21089971;28;20032;-58
2023/06/24 21:08:12;;;;;;;2.13;1.92;;;;;;;25.82;48.40;100787.41;21087945;28;20083;-58
2023/06/24 21:18:14;;;;;;;1.95;1.85;;;;;;;25.78;48.15;100752.75;21087312;28;20036;-58
2023/06/24 21:28:16;;;;;;;2.88;2.20;;;;;;;25.85;48.10;100736.34;21086714;28;20039;-59
2023/06/24 21:38:17;;;;;;;2.15;1.95;;;;;;;25.83;48.23;100747.03;21086103;28;20043;-58
2023/06/24 21:48:18;;;;;;;2.30;2.10;;;;;;;25.87;48.15;100755.63;21084862;28;20040;-58
2023/06/24 21:58:19;;;;;;;2.25;2.05;;;;;;;25.89;48.19;100758.09;21085029;28;20032;-58
2023/06/24 22:08:23;;;;;;;2.25;2.05;;;;;;;25.90;48.51;100754.16;21084744;28;20070;-58
2023/06/24 22:18:25;;;;;;;2.50;2.08;;;;;;;25.91;48.51;100755.81;21083280;28;20085;-57
2023/06/24 22:28:26;;;;;;;2.35;2.15;;;;;;;25.78;48.70;100740.72;21083228;28;20089;-57
2023/06/24 22:38:28;;;;;;;2.30;2.10;;;;;;;25.84;48.52;100729.06;21081816;28;20085;-57
2023/06/24 22:48:29;;;;;;;2.25;2.03;;;;;;;25.95;48.66;100756.84;21081065;28;20044;-59
2023/06/24 22:58:30;;;;;;;2.53;2.33;;;;;;;25.95;48.75;100768.06;21080642;28;20039;-58
2023/06/24 23:08:32;;;;;;;2.30;2.10;;;;;;;25.98;48.78;100792.63;21080183;28;20552;-59
2023/06/24 23:18:34;;;;;;;2.25;2.05;;;;;;;26.02;48.64;100818.88;21080008;28;20086;-59
2023/06/24 23:28:38;;;;;;;2.60;2.40;;;;;;;26.02;48.79;100830.09;21077531;28;20040;-58
2023/06/24 23:38:39;;;;;;;2.10;1.90;;;;;;;26.01;48.92;100829.28;21077439;28;20121;-58
2023/06/24 23:48:41;;;;;;;2.17;1.98;;;;;;;26.02;48.94;100835.72;21076974;28;20513;-59
2023/06/24 23:58:42;;;;;;;2.30;2.10;;;;;;;26.02;49.21;100824.50;21075252;28;20036;-58
